JIK weather

Ikaria Airport
Ikaria Island, Samos, Greece

Public forecast

Using degrees Celsius for public forecast. Weather courtesy of forecast.io.

Closest aviation weather report (METAR) to Ikaria Airport

Closest report is Samos Airport, 26.8 nm (49.7 km) E. Retrieved 2020/02/17 15:20 UTC (0 seconds ago):

LGSM 171520Z 02008KT CAVOK 14/07 Q1019

Closest aviation forecast (TAF) to Ikaria Airport

Forecast is more than 12 hours old.

Closest forecast is Samos Airport, 26.8 nm (49.7 km) E. Retrieved 2012/09/21 03:06 UTC (7 years ago):

TAF LGSM 210200Z 2103/2115 VRB05KT 9999 FEW020 BECMG 2104/2106 30012KT